sensor_id;sensor_type;location;lat;lon;timestamp;P1;durP1;ratioP1;P2;durP2;ratioP2
68921;SDS011;55959;51.244;5.724;2022-12-10T00:01:44;30.53;;;21.47;;
68921;SDS011;55959;51.244;5.724;2022-12-10T00:04:11;30.73;;;19.27;;
68921;SDS011;55959;51.244;5.724;2022-12-10T00:06:38;29.70;;;19.73;;
68921;SDS011;55959;51.244;5.724;2022-12-10T00:09:06;29.50;;;19.73;;
68921;SDS011;55959;51.244;5.724;2022-12-10T00:11:37;31.87;;;20.07;;
68921;SDS011;55959;51.244;5.724;2022-12-10T00:14:03;30.13;;;20.13;;
68921;SDS011;55959;51.244;5.724;2022-12-10T00:16:31;29.70;;;19.90;;
68921;SDS011;55959;51.244;5.724;2022-12-10T00:18:58;28.30;;;19.03;;
68921;SDS011;55959;51.244;5.724;2022-12-10T00:21:32;29.97;;;20.70;;
68921;SDS011;55959;51.244;5.724;2022-12-10T00:24:01;32.30;;;20.70;;
68921;SDS011;55959;51.244;5.724;2022-12-10T00:26:30;28.40;;;20.23;;
68921;SDS011;55959;51.244;5.724;2022-12-10T00:29:00;32.37;;;21.23;;
68921;SDS011;55959;51.244;5.724;2022-12-10T00:31:29;32.60;;;19.90;;
68921;SDS011;55959;51.244;5.724;2022-12-10T00:33:58;30.27;;;21.10;;
68921;SDS011;55959;51.244;5.724;2022-12-10T00:36:31;31.27;;;20.87;;
68921;SDS011;55959;51.244;5.724;2022-12-10T00:39:02;30.43;;;21.27;;
68921;SDS011;55959;51.244;5.724;2022-12-10T00:41:29;30.43;;;20.67;;
68921;SDS011;55959;51.244;5.724;2022-12-10T00:43:55;30.80;;;20.77;;
68921;SDS011;55959;51.244;5.724;2022-12-10T00:46:20;28.77;;;19.77;;
68921;SDS011;55959;51.244;5.724;2022-12-10T00:48:46;29.60;;;20.43;;
68921;SDS011;55959;51.244;5.724;2022-12-10T00:51:14;32.80;;;19.87;;
68921;SDS011;55959;51.244;5.724;2022-12-10T00:53:45;31.03;;;19.97;;
68921;SDS011;55959;51.244;5.724;2022-12-10T00:56:13;30.10;;;21.20;;
68921;SDS011;55959;51.244;5.724;2022-12-10T00:58:42;28.33;;;19.90;;
68921;SDS011;55959;51.244;5.724;2022-12-10T01:03:46;28.23;;;18.20;;
68921;SDS011;55959;51.244;5.724;2022-12-10T01:08:47;27.93;;;18.63;;
68921;SDS011;55959;51.244;5.724;2022-12-10T01:11:17;30.13;;;19.43;;
68921;SDS011;55959;51.244;5.724;2022-12-10T01:13:45;29.23;;;19.33;;
68921;SDS011;55959;51.244;5.724;2022-12-10T01:16:12;26.93;;;18.57;;
68921;SDS011;55959;51.244;5.724;2022-12-10T01:18:41;25.83;;;19.67;;
68921;SDS011;55959;51.244;5.724;2022-12-10T01:21:12;27.60;;;18.57;;
68921;SDS011;55959;51.244;5.724;2022-12-10T01:23:43;27.13;;;19.33;;
68921;SDS011;55959;51.244;5.724;2022-12-10T01:26:11;31.17;;;20.30;;
68921;SDS011;55959;51.244;5.724;2022-12-10T01:28:40;29.17;;;20.87;;
68921;SDS011;55959;51.244;5.724;2022-12-10T01:31:09;29.10;;;19.33;;
68921;SDS011;55959;51.244;5.724;2022-12-10T01:33:38;33.63;;;20.30;;
68921;SDS011;55959;51.244;5.724;2022-12-10T01:36:05;30.17;;;19.40;;
68921;SDS011;55959;51.244;5.724;2022-12-10T01:38:35;27.63;;;19.67;;
68921;SDS011;55959;51.244;5.724;2022-12-10T01:41:01;29.13;;;19.30;;
68921;SDS011;55959;51.244;5.724;2022-12-10T01:43:27;28.03;;;19.47;;
68921;SDS011;55959;51.244;5.724;2022-12-10T01:46:14;31.13;;;20.30;;
68921;SDS011;55959;51.244;5.724;2022-12-10T01:48:40;28.13;;;18.17;;
68921;SDS011;55959;51.244;5.724;2022-12-10T01:51:06;26.87;;;18.90;;
68921;SDS011;55959;51.244;5.724;2022-12-10T01:53:32;26.90;;;19.37;;
68921;SDS011;55959;51.244;5.724;2022-12-10T01:55:58;27.87;;;19.23;;
68921;SDS011;55959;51.244;5.724;2022-12-10T01:58:24;32.00;;;21.53;;
68921;SDS011;55959;51.244;5.724;2022-12-10T02:03:37;31.83;;;21.80;;
68921;SDS011;55959;51.244;5.724;2022-12-10T02:12:01;32.40;;;21.13;;
68921;SDS011;55959;51.244;5.724;2022-12-10T02:14:41;32.93;;;22.17;;
68921;SDS011;55959;51.244;5.724;2022-12-10T02:17:42;30.00;;;20.23;;
68921;SDS011;55959;51.244;5.724;2022-12-10T02:20:19;33.23;;;21.20;;
68921;SDS011;55959;51.244;5.724;2022-12-10T02:23:08;33.53;;;21.57;;
68921;SDS011;55959;51.244;5.724;2022-12-10T02:25:42;33.20;;;22.50;;
68921;SDS011;55959;51.244;5.724;2022-12-10T02:28:35;34.20;;;22.03;;
68921;SDS011;55959;51.244;5.724;2022-12-10T02:31:04;36.43;;;24.43;;
68921;SDS011;55959;51.244;5.724;2022-12-10T02:33:31;38.13;;;24.67;;
68921;SDS011;55959;51.244;5.724;2022-12-10T02:36:02;37.43;;;23.13;;
68921;SDS011;55959;51.244;5.724;2022-12-10T02:38:30;35.33;;;22.27;;
68921;SDS011;55959;51.244;5.724;2022-12-10T02:41:00;34.23;;;21.80;;
68921;SDS011;55959;51.244;5.724;2022-12-10T02:43:33;32.57;;;21.40;;
68921;SDS011;55959;51.244;5.724;2022-12-10T02:45:59;35.63;;;22.33;;
68921;SDS011;55959;51.244;5.724;2022-12-10T02:48:28;33.30;;;21.80;;
68921;SDS011;55959;51.244;5.724;2022-12-10T02:50:56;34.30;;;22.93;;
68921;SDS011;55959;51.244;5.724;2022-12-10T02:53:21;35.83;;;23.03;;
68921;SDS011;55959;51.244;5.724;2022-12-10T03:04:33;36.80;;;23.87;;
68921;SDS011;55959;51.244;5.724;2022-12-10T03:07:18;36.27;;;22.87;;
68921;SDS011;55959;51.244;5.724;2022-12-10T03:09:58;36.37;;;23.57;;
68921;SDS011;55959;51.244;5.724;2022-12-10T03:12:39;35.97;;;23.10;;
68921;SDS011;55959;51.244;5.724;2022-12-10T03:15:11;31.83;;;21.30;;
68921;SDS011;55959;51.244;5.724;2022-12-10T03:17:40;35.87;;;22.90;;
68921;SDS011;55959;51.244;5.724;2022-12-10T03:20:10;37.87;;;24.03;;
68921;SDS011;55959;51.244;5.724;2022-12-10T03:22:39;37.67;;;23.20;;
68921;SDS011;55959;51.244;5.724;2022-12-10T03:25:10;35.53;;;22.30;;
68921;SDS011;55959;51.244;5.724;2022-12-10T03:27:41;32.97;;;23.00;;
68921;SDS011;55959;51.244;5.724;2022-12-10T03:30:08;35.37;;;23.57;;
68921;SDS011;55959;51.244;5.724;2022-12-10T03:32:34;39.83;;;22.97;;
68921;SDS011;55959;51.244;5.724;2022-12-10T03:35:01;33.27;;;21.90;;
68921;SDS011;55959;51.244;5.724;2022-12-10T03:37:29;31.17;;;20.17;;
68921;SDS011;55959;51.244;5.724;2022-12-10T03:39:55;37.33;;;23.03;;
68921;SDS011;55959;51.244;5.724;2022-12-10T03:42:23;37.33;;;22.87;;
68921;SDS011;55959;51.244;5.724;2022-12-10T03:44:49;31.80;;;21.33;;
68921;SDS011;55959;51.244;5.724;2022-12-10T03:47:16;33.57;;;22.13;;
68921;SDS011;55959;51.244;5.724;2022-12-10T03:49:43;35.37;;;23.20;;
68921;SDS011;55959;51.244;5.724;2022-12-10T03:52:09;37.40;;;25.17;;
68921;SDS011;55959;51.244;5.724;2022-12-10T03:54:35;33.53;;;21.27;;
68921;SDS011;55959;51.244;5.724;2022-12-10T03:57:01;37.33;;;23.20;;
68921;SDS011;55959;51.244;5.724;2022-12-10T03:59:28;36.77;;;23.27;;
68921;SDS011;55959;51.244;5.724;2022-12-10T04:01:53;36.20;;;22.70;;
68921;SDS011;55959;51.244;5.724;2022-12-10T04:04:19;38.43;;;23.93;;
68921;SDS011;55959;51.244;5.724;2022-12-10T04:06:45;37.60;;;23.97;;
68921;SDS011;55959;51.244;5.724;2022-12-10T04:09:12;36.57;;;23.17;;
68921;SDS011;55959;51.244;5.724;2022-12-10T04:11:39;35.10;;;21.10;;
68921;SDS011;55959;51.244;5.724;2022-12-10T04:14:05;32.00;;;20.60;;
68921;SDS011;55959;51.244;5.724;2022-12-10T04:16:52;41.30;;;23.27;;
68921;SDS011;55959;51.244;5.724;2022-12-10T04:19:18;36.83;;;23.37;;
68921;SDS011;55959;51.244;5.724;2022-12-10T04:21:44;37.33;;;24.53;;
68921;SDS011;55959;51.244;5.724;2022-12-10T04:24:31;36.03;;;23.40;;
68921;SDS011;55959;51.244;5.724;2022-12-10T04:27:21;35.20;;;23.33;;
68921;SDS011;55959;51.244;5.724;2022-12-10T04:29:53;37.93;;;23.37;;
68921;SDS011;55959;51.244;5.724;2022-12-10T04:32:21;33.33;;;22.77;;
68921;SDS011;55959;51.244;5.724;2022-12-10T04:34:48;35.23;;;21.83;;
68921;SDS011;55959;51.244;5.724;2022-12-10T04:37:14;38.27;;;24.57;;
68921;SDS011;55959;51.244;5.724;2022-12-10T04:39:42;35.07;;;22.43;;
68921;SDS011;55959;51.244;5.724;2022-12-10T04:42:08;34.77;;;21.93;;
68921;SDS011;55959;51.244;5.724;2022-12-10T04:44:34;35.07;;;21.97;;
68921;SDS011;55959;51.244;5.724;2022-12-10T04:47:00;34.53;;;21.50;;
68921;SDS011;55959;51.244;5.724;2022-12-10T04:49:26;36.77;;;24.07;;
68921;SDS011;55959;51.244;5.724;2022-12-10T04:51:52;36.80;;;23.23;;
68921;SDS011;55959;51.244;5.724;2022-12-10T04:54:18;31.77;;;20.57;;
68921;SDS011;55959;51.244;5.724;2022-12-10T04:56:44;38.70;;;23.97;;
68921;SDS011;55959;51.244;5.724;2022-12-10T04:59:10;41.13;;;26.43;;
68921;SDS011;55959;51.244;5.724;2022-12-10T05:01:37;36.80;;;24.23;;
68921;SDS011;55959;51.244;5.724;2022-12-10T05:04:04;36.73;;;22.87;;
68921;SDS011;55959;51.244;5.724;2022-12-10T05:06:34;36.47;;;23.77;;
68921;SDS011;55959;51.244;5.724;2022-12-10T05:09:00;37.00;;;23.33;;
68921;SDS011;55959;51.244;5.724;2022-12-10T05:11:27;44.23;;;25.63;;
68921;SDS011;55959;51.244;5.724;2022-12-10T05:13:54;34.03;;;22.67;;
68921;SDS011;55959;51.244;5.724;2022-12-10T05:16:22;41.03;;;25.10;;
68921;SDS011;55959;51.244;5.724;2022-12-10T05:18:50;38.87;;;25.43;;
68921;SDS011;55959;51.244;5.724;2022-12-10T05:21:17;36.37;;;24.00;;
68921;SDS011;55959;51.244;5.724;2022-12-10T05:23:46;36.67;;;23.20;;
68921;SDS011;55959;51.244;5.724;2022-12-10T05:28:43;38.23;;;24.47;;
68921;SDS011;55959;51.244;5.724;2022-12-10T05:31:13;35.90;;;24.00;;
68921;SDS011;55959;51.244;5.724;2022-12-10T05:33:41;35.27;;;23.30;;
68921;SDS011;55959;51.244;5.724;2022-12-10T05:36:08;37.00;;;23.83;;
68921;SDS011;55959;51.244;5.724;2022-12-10T05:38:36;39.53;;;25.13;;
68921;SDS011;55959;51.244;5.724;2022-12-10T05:41:04;36.77;;;23.50;;
68921;SDS011;55959;51.244;5.724;2022-12-10T05:43:31;41.20;;;25.43;;
68921;SDS011;55959;51.244;5.724;2022-12-10T05:46:01;32.17;;;21.77;;
68921;SDS011;55959;51.244;5.724;2022-12-10T05:48:29;36.97;;;23.53;;
68921;SDS011;55959;51.244;5.724;2022-12-10T05:50:55;36.43;;;23.17;;
68921;SDS011;55959;51.244;5.724;2022-12-10T05:53:21;37.83;;;23.67;;
68921;SDS011;55959;51.244;5.724;2022-12-10T05:55:48;36.73;;;22.37;;
68921;SDS011;55959;51.244;5.724;2022-12-10T05:58:14;35.30;;;23.30;;
68921;SDS011;55959;51.244;5.724;2022-12-10T06:00:40;34.43;;;22.87;;
68921;SDS011;55959;51.244;5.724;2022-12-10T06:03:08;33.10;;;22.13;;
68921;SDS011;55959;51.244;5.724;2022-12-10T06:05:40;32.27;;;21.53;;
68921;SDS011;55959;51.244;5.724;2022-12-10T06:08:06;34.33;;;22.10;;
68921;SDS011;55959;51.244;5.724;2022-12-10T06:10:35;35.70;;;22.93;;
68921;SDS011;55959;51.244;5.724;2022-12-10T06:13:02;35.20;;;22.13;;
68921;SDS011;55959;51.244;5.724;2022-12-10T06:15:29;35.23;;;21.97;;
68921;SDS011;55959;51.244;5.724;2022-12-10T06:17:57;32.77;;;22.13;;
68921;SDS011;55959;51.244;5.724;2022-12-10T06:20:23;32.20;;;20.53;;
68921;SDS011;55959;51.244;5.724;2022-12-10T06:22:50;33.53;;;21.07;;
68921;SDS011;55959;51.244;5.724;2022-12-10T06:25:16;32.13;;;21.27;;
68921;SDS011;55959;51.244;5.724;2022-12-10T06:27:43;37.87;;;22.00;;
68921;SDS011;55959;51.244;5.724;2022-12-10T06:30:09;32.43;;;22.10;;
68921;SDS011;55959;51.244;5.724;2022-12-10T06:32:36;36.83;;;22.47;;
68921;SDS011;55959;51.244;5.724;2022-12-10T06:35:02;34.47;;;22.10;;
68921;SDS011;55959;51.244;5.724;2022-12-10T06:37:28;32.07;;;21.73;;
68921;SDS011;55959;51.244;5.724;2022-12-10T06:39:54;34.03;;;22.37;;
68921;SDS011;55959;51.244;5.724;2022-12-10T06:42:20;32.80;;;21.30;;
68921;SDS011;55959;51.244;5.724;2022-12-10T06:44:46;35.17;;;22.23;;
68921;SDS011;55959;51.244;5.724;2022-12-10T06:47:12;39.23;;;24.47;;
68921;SDS011;55959;51.244;5.724;2022-12-10T06:49:39;36.07;;;22.97;;
68921;SDS011;55959;51.244;5.724;2022-12-10T06:52:05;34.07;;;22.60;;
68921;SDS011;55959;51.244;5.724;2022-12-10T06:54:31;37.90;;;22.77;;
68921;SDS011;55959;51.244;5.724;2022-12-10T06:56:57;39.70;;;23.20;;
68921;SDS011;55959;51.244;5.724;2022-12-10T06:59:23;39.73;;;26.13;;
68921;SDS011;55959;51.244;5.724;2022-12-10T07:01:49;39.90;;;24.83;;
68921;SDS011;55959;51.244;5.724;2022-12-10T07:04:15;37.70;;;23.30;;
68921;SDS011;55959;51.244;5.724;2022-12-10T07:06:41;35.07;;;21.70;;
68921;SDS011;55959;51.244;5.724;2022-12-10T07:09:08;29.77;;;20.63;;
68921;SDS011;55959;51.244;5.724;2022-12-10T07:11:34;35.50;;;22.83;;
68921;SDS011;55959;51.244;5.724;2022-12-10T07:14:01;40.97;;;25.80;;
68921;SDS011;55959;51.244;5.724;2022-12-10T07:16:29;34.67;;;23.73;;
68921;SDS011;55959;51.244;5.724;2022-12-10T07:18:57;38.80;;;23.60;;
68921;SDS011;55959;51.244;5.724;2022-12-10T07:21:25;40.50;;;24.90;;
68921;SDS011;55959;51.244;5.724;2022-12-10T07:23:54;36.73;;;23.93;;
68921;SDS011;55959;51.244;5.724;2022-12-10T07:26:30;38.33;;;25.00;;
68921;SDS011;55959;51.244;5.724;2022-12-10T07:29:00;38.57;;;23.73;;
68921;SDS011;55959;51.244;5.724;2022-12-10T07:31:27;36.23;;;22.63;;
68921;SDS011;55959;51.244;5.724;2022-12-10T07:33:53;37.53;;;22.53;;
68921;SDS011;55959;51.244;5.724;2022-12-10T07:36:22;34.50;;;22.53;;
68921;SDS011;55959;51.244;5.724;2022-12-10T07:38:49;39.30;;;23.77;;
68921;SDS011;55959;51.244;5.724;2022-12-10T07:41:16;33.20;;;21.23;;
68921;SDS011;55959;51.244;5.724;2022-12-10T07:43:42;38.07;;;23.60;;
68921;SDS011;55959;51.244;5.724;2022-12-10T07:46:20;39.27;;;23.90;;
68921;SDS011;55959;51.244;5.724;2022-12-10T07:48:49;38.60;;;22.87;;
68921;SDS011;55959;51.244;5.724;2022-12-10T07:51:16;38.20;;;22.63;;
68921;SDS011;55959;51.244;5.724;2022-12-10T07:53:44;33.93;;;23.07;;
68921;SDS011;55959;51.244;5.724;2022-12-10T07:56:10;39.03;;;24.10;;
68921;SDS011;55959;51.244;5.724;2022-12-10T07:58:36;36.77;;;24.03;;
68921;SDS011;55959;51.244;5.724;2022-12-10T08:01:06;37.43;;;23.60;;
68921;SDS011;55959;51.244;5.724;2022-12-10T08:03:34;37.40;;;21.63;;
68921;SDS011;55959;51.244;5.724;2022-12-10T08:06:04;39.43;;;22.20;;
68921;SDS011;55959;51.244;5.724;2022-12-10T08:08:42;40.63;;;24.47;;
68921;SDS011;55959;51.244;5.724;2022-12-10T08:11:09;36.77;;;23.53;;
68921;SDS011;55959;51.244;5.724;2022-12-10T08:13:36;34.63;;;22.50;;
68921;SDS011;55959;51.244;5.724;2022-12-10T08:18:39;39.50;;;23.47;;
68921;SDS011;55959;51.244;5.724;2022-12-10T08:21:06;39.63;;;23.03;;
68921;SDS011;55959;51.244;5.724;2022-12-10T08:23:36;34.70;;;23.00;;
68921;SDS011;55959;51.244;5.724;2022-12-10T08:26:03;36.13;;;22.20;;
68921;SDS011;55959;51.244;5.724;2022-12-10T08:28:34;36.40;;;22.20;;
68921;SDS011;55959;51.244;5.724;2022-12-10T08:31:00;37.00;;;23.27;;
68921;SDS011;55959;51.244;5.724;2022-12-10T08:33:27;36.93;;;23.97;;
68921;SDS011;55959;51.244;5.724;2022-12-10T08:35:57;37.50;;;22.97;;
68921;SDS011;55959;51.244;5.724;2022-12-10T08:38:26;36.60;;;22.00;;
68921;SDS011;55959;51.244;5.724;2022-12-10T08:40:53;40.93;;;24.13;;
68921;SDS011;55959;51.244;5.724;2022-12-10T08:43:19;41.07;;;24.73;;
68921;SDS011;55959;51.244;5.724;2022-12-10T08:45:44;39.83;;;24.07;;
68921;SDS011;55959;51.244;5.724;2022-12-10T08:48:10;34.97;;;22.53;;
68921;SDS011;55959;51.244;5.724;2022-12-10T08:50:36;40.60;;;23.00;;
68921;SDS011;55959;51.244;5.724;2022-12-10T08:53:02;33.87;;;21.13;;
68921;SDS011;55959;51.244;5.724;2022-12-10T08:55:28;35.63;;;21.50;;
68921;SDS011;55959;51.244;5.724;2022-12-10T08:57:55;35.30;;;21.40;;
68921;SDS011;55959;51.244;5.724;2022-12-10T09:00:22;34.40;;;21.27;;
68921;SDS011;55959;51.244;5.724;2022-12-10T09:02:49;36.23;;;22.10;;
68921;SDS011;55959;51.244;5.724;2022-12-10T09:05:15;37.17;;;22.73;;
68921;SDS011;55959;51.244;5.724;2022-12-10T09:07:41;38.50;;;22.90;;
68921;SDS011;55959;51.244;5.724;2022-12-10T09:10:06;37.57;;;21.03;;
68921;SDS011;55959;51.244;5.724;2022-12-10T09:12:35;42.47;;;22.00;;
68921;SDS011;55959;51.244;5.724;2022-12-10T09:15:01;37.43;;;21.73;;
68921;SDS011;55959;51.244;5.724;2022-12-10T09:17:27;40.60;;;23.43;;
68921;SDS011;55959;51.244;5.724;2022-12-10T09:19:52;37.87;;;22.43;;
68921;SDS011;55959;51.244;5.724;2022-12-10T09:22:18;37.80;;;22.30;;
68921;SDS011;55959;51.244;5.724;2022-12-10T09:24:44;36.30;;;22.33;;
68921;SDS011;55959;51.244;5.724;2022-12-10T09:27:09;38.03;;;22.13;;
68921;SDS011;55959;51.244;5.724;2022-12-10T09:29:35;34.37;;;21.30;;
68921;SDS011;55959;51.244;5.724;2022-12-10T09:32:01;41.07;;;22.77;;
68921;SDS011;55959;51.244;5.724;2022-12-10T09:34:27;36.70;;;22.67;;
68921;SDS011;55959;51.244;5.724;2022-12-10T09:36:52;35.37;;;20.77;;
68921;SDS011;55959;51.244;5.724;2022-12-10T09:39:18;38.10;;;22.03;;
68921;SDS011;55959;51.244;5.724;2022-12-10T09:42:00;38.03;;;22.17;;
68921;SDS011;55959;51.244;5.724;2022-12-10T09:50:48;38.50;;;23.27;;
68921;SDS011;55959;51.244;5.724;2022-12-10T09:53:36;40.67;;;23.30;;
68921;SDS011;55959;51.244;5.724;2022-12-10T09:56:04;36.47;;;22.53;;
68921;SDS011;55959;51.244;5.724;2022-12-10T09:58:34;38.93;;;23.93;;
68921;SDS011;55959;51.244;5.724;2022-12-10T10:01:04;37.00;;;21.67;;
68921;SDS011;55959;51.244;5.724;2022-12-10T10:03:32;39.60;;;22.07;;
68921;SDS011;55959;51.244;5.724;2022-12-10T10:06:03;42.10;;;24.10;;
68921;SDS011;55959;51.244;5.724;2022-12-10T10:08:34;42.47;;;24.00;;
68921;SDS011;55959;51.244;5.724;2022-12-10T10:11:09;37.07;;;21.80;;
68921;SDS011;55959;51.244;5.724;2022-12-10T10:13:51;36.03;;;21.93;;
68921;SDS011;55959;51.244;5.724;2022-12-10T10:19:09;37.33;;;21.50;;
68921;SDS011;55959;51.244;5.724;2022-12-10T10:21:42;38.73;;;23.80;;
68921;SDS011;55959;51.244;5.724;2022-12-10T10:24:16;37.13;;;22.57;;
68921;SDS011;55959;51.244;5.724;2022-12-10T10:26:48;39.23;;;23.17;;
68921;SDS011;55959;51.244;5.724;2022-12-10T10:29:17;41.93;;;23.53;;
68921;SDS011;55959;51.244;5.724;2022-12-10T10:31:46;38.53;;;22.07;;
68921;SDS011;55959;51.244;5.724;2022-12-10T10:34:15;37.33;;;20.97;;
68921;SDS011;55959;51.244;5.724;2022-12-10T10:36:44;41.47;;;24.93;;
68921;SDS011;55959;51.244;5.724;2022-12-10T10:39:32;41.77;;;24.37;;
68921;SDS011;55959;51.244;5.724;2022-12-10T10:42:00;41.80;;;24.93;;
68921;SDS011;55959;51.244;5.724;2022-12-10T10:44:35;42.93;;;24.87;;
68921;SDS011;55959;51.244;5.724;2022-12-10T10:47:03;39.10;;;23.03;;
68921;SDS011;55959;51.244;5.724;2022-12-10T10:49:51;43.63;;;25.53;;
68921;SDS011;55959;51.244;5.724;2022-12-10T10:52:18;36.97;;;22.73;;
68921;SDS011;55959;51.244;5.724;2022-12-10T10:54:45;40.60;;;24.17;;
68921;SDS011;55959;51.244;5.724;2022-12-10T10:57:20;42.33;;;25.20;;
68921;SDS011;55959;51.244;5.724;2022-12-10T11:00:06;36.83;;;22.70;;
68921;SDS011;55959;51.244;5.724;2022-12-10T11:02:43;40.47;;;23.10;;
68921;SDS011;55959;51.244;5.724;2022-12-10T11:07:56;35.23;;;21.03;;
68921;SDS011;55959;51.244;5.724;2022-12-10T11:10:27;41.60;;;22.83;;
68921;SDS011;55959;51.244;5.724;2022-12-10T11:13:04;33.50;;;21.60;;
68921;SDS011;55959;51.244;5.724;2022-12-10T11:15:40;42.30;;;23.87;;
68921;SDS011;55959;51.244;5.724;2022-12-10T11:23:38;36.73;;;20.70;;
68921;SDS011;55959;51.244;5.724;2022-12-10T11:29:02;41.00;;;22.70;;
68921;SDS011;55959;51.244;5.724;2022-12-10T11:43:25;36.40;;;21.83;;
68921;SDS011;55959;51.244;5.724;2022-12-10T11:49:34;42.57;;;23.23;;
68921;SDS011;55959;51.244;5.724;2022-12-10T11:55:17;41.03;;;23.47;;
68921;SDS011;55959;51.244;5.724;2022-12-10T12:01:13;40.20;;;25.10;;
68921;SDS011;55959;51.244;5.724;2022-12-10T12:03:59;42.20;;;23.87;;
68921;SDS011;55959;51.244;5.724;2022-12-10T12:09:48;39.77;;;23.20;;
68921;SDS011;55959;51.244;5.724;2022-12-10T12:13:08;38.30;;;21.87;;
68921;SDS011;55959;51.244;5.724;2022-12-10T12:21:13;36.37;;;21.97;;
68921;SDS011;55959;51.244;5.724;2022-12-10T12:23:49;43.67;;;23.73;;
68921;SDS011;55959;51.244;5.724;2022-12-10T12:26:27;40.10;;;23.43;;
68921;SDS011;55959;51.244;5.724;2022-12-10T12:29:11;36.77;;;20.87;;
68921;SDS011;55959;51.244;5.724;2022-12-10T12:32:02;40.23;;;22.43;;
68921;SDS011;55959;51.244;5.724;2022-12-10T12:34:44;44.73;;;25.57;;
68921;SDS011;55959;51.244;5.724;2022-12-10T12:37:16;39.03;;;21.83;;
68921;SDS011;55959;51.244;5.724;2022-12-10T12:42:56;38.03;;;22.17;;
68921;SDS011;55959;51.244;5.724;2022-12-10T12:45:46;42.27;;;23.80;;
68921;SDS011;55959;51.244;5.724;2022-12-10T12:54:03;39.83;;;24.03;;
68921;SDS011;55959;51.244;5.724;2022-12-10T13:04:58;37.00;;;21.80;;
68921;SDS011;55959;51.244;5.724;2022-12-10T13:15:40;40.33;;;21.83;;
68921;SDS011;55959;51.244;5.724;2022-12-10T13:23:53;40.90;;;22.63;;
68921;SDS011;55959;51.244;5.724;2022-12-10T13:26:34;36.07;;;20.47;;
68921;SDS011;55959;51.244;5.724;2022-12-10T13:30:03;34.43;;;19.00;;
68921;SDS011;55959;51.244;5.724;2022-12-10T13:37:33;38.17;;;22.20;;
68921;SDS011;55959;51.244;5.724;2022-12-10T13:43:57;34.20;;;19.83;;
68921;SDS011;55959;51.244;5.724;2022-12-10T13:48:54;34.97;;;20.20;;
68921;SDS011;55959;51.244;5.724;2022-12-10T14:00:01;32.90;;;17.80;;
68921;SDS011;55959;51.244;5.724;2022-12-10T14:05:39;37.03;;;21.10;;
68921;SDS011;55959;51.244;5.724;2022-12-10T14:08:52;39.73;;;20.47;;
68921;SDS011;55959;51.244;5.724;2022-12-10T14:11:48;33.33;;;19.27;;
68921;SDS011;55959;51.244;5.724;2022-12-10T14:14:32;39.93;;;21.30;;
68921;SDS011;55959;51.244;5.724;2022-12-10T14:17:12;37.27;;;22.33;;
68921;SDS011;55959;51.244;5.724;2022-12-10T14:19:41;41.60;;;22.10;;
68921;SDS011;55959;51.244;5.724;2022-12-10T14:22:15;40.70;;;21.47;;
68921;SDS011;55959;51.244;5.724;2022-12-10T14:24:47;35.70;;;19.07;;
68921;SDS011;55959;51.244;5.724;2022-12-10T14:27:19;34.63;;;18.93;;
68921;SDS011;55959;51.244;5.724;2022-12-10T14:29:51;44.77;;;24.17;;
68921;SDS011;55959;51.244;5.724;2022-12-10T14:32:37;36.00;;;20.10;;
68921;SDS011;55959;51.244;5.724;2022-12-10T14:35:05;37.87;;;20.80;;
68921;SDS011;55959;51.244;5.724;2022-12-10T14:37:40;43.37;;;22.03;;
68921;SDS011;55959;51.244;5.724;2022-12-10T14:40:09;47.50;;;23.53;;
68921;SDS011;55959;51.244;5.724;2022-12-10T14:42:49;40.17;;;21.07;;
68921;SDS011;55959;51.244;5.724;2022-12-10T14:45:20;38.53;;;21.47;;
68921;SDS011;55959;51.244;5.724;2022-12-10T14:47:47;44.37;;;24.27;;
68921;SDS011;55959;51.244;5.724;2022-12-10T14:50:14;46.30;;;23.40;;
68921;SDS011;55959;51.244;5.724;2022-12-10T14:52:43;42.30;;;22.07;;
68921;SDS011;55959;51.244;5.724;2022-12-10T14:55:16;43.27;;;22.10;;
68921;SDS011;55959;51.244;5.724;2022-12-10T14:57:49;38.13;;;21.67;;
68921;SDS011;55959;51.244;5.724;2022-12-10T15:00:21;39.40;;;20.37;;
68921;SDS011;55959;51.244;5.724;2022-12-10T15:02:50;39.40;;;20.00;;
68921;SDS011;55959;51.244;5.724;2022-12-10T15:05:21;34.07;;;19.23;;
68921;SDS011;55959;51.244;5.724;2022-12-10T15:08:14;33.63;;;19.77;;
68921;SDS011;55959;51.244;5.724;2022-12-10T15:10:46;38.80;;;19.67;;
68921;SDS011;55959;51.244;5.724;2022-12-10T15:13:21;33.27;;;18.03;;
68921;SDS011;55959;51.244;5.724;2022-12-10T15:15:57;40.93;;;20.70;;
68921;SDS011;55959;51.244;5.724;2022-12-10T15:18:33;37.23;;;20.17;;
68921;SDS011;55959;51.244;5.724;2022-12-10T15:21:10;36.77;;;19.50;;
68921;SDS011;55959;51.244;5.724;2022-12-10T15:23:39;37.70;;;19.73;;
68921;SDS011;55959;51.244;5.724;2022-12-10T15:28:45;28.90;;;17.30;;
68921;SDS011;55959;51.244;5.724;2022-12-10T15:31:19;35.07;;;18.13;;
68921;SDS011;55959;51.244;5.724;2022-12-10T15:41:51;40.70;;;20.07;;
68921;SDS011;55959;51.244;5.724;2022-12-10T15:47:17;35.80;;;19.53;;
68921;SDS011;55959;51.244;5.724;2022-12-10T15:49:45;35.13;;;18.77;;
68921;SDS011;55959;51.244;5.724;2022-12-10T15:52:32;35.57;;;19.27;;
68921;SDS011;55959;51.244;5.724;2022-12-10T15:54:58;37.67;;;19.10;;
68921;SDS011;55959;51.244;5.724;2022-12-10T16:00:08;36.17;;;19.03;;
68921;SDS011;55959;51.244;5.724;2022-12-10T16:03:01;36.30;;;18.27;;
68921;SDS011;55959;51.244;5.724;2022-12-10T16:05:31;32.10;;;17.83;;
68921;SDS011;55959;51.244;5.724;2022-12-10T16:08:11;30.17;;;17.17;;
68921;SDS011;55959;51.244;5.724;2022-12-10T16:10:43;34.73;;;17.87;;
68921;SDS011;55959;51.244;5.724;2022-12-10T16:13:12;31.93;;;17.10;;
68921;SDS011;55959;51.244;5.724;2022-12-10T16:15:55;35.47;;;18.33;;
68921;SDS011;55959;51.244;5.724;2022-12-10T16:18:25;37.17;;;20.00;;
68921;SDS011;55959;51.244;5.724;2022-12-10T16:20:51;34.53;;;19.40;;
68921;SDS011;55959;51.244;5.724;2022-12-10T16:23:17;30.10;;;17.53;;
68921;SDS011;55959;51.244;5.724;2022-12-10T16:25:44;38.13;;;20.20;;
68921;SDS011;55959;51.244;5.724;2022-12-10T16:28:12;32.13;;;18.13;;
68921;SDS011;55959;51.244;5.724;2022-12-10T16:30:42;31.77;;;16.20;;
68921;SDS011;55959;51.244;5.724;2022-12-10T16:33:29;30.63;;;15.67;;
68921;SDS011;55959;51.244;5.724;2022-12-10T16:35:55;25.97;;;15.73;;
68921;SDS011;55959;51.244;5.724;2022-12-10T16:38:27;29.57;;;16.27;;
68921;SDS011;55959;51.244;5.724;2022-12-10T16:40:53;30.13;;;16.17;;
68921;SDS011;55959;51.244;5.724;2022-12-10T16:43:23;25.67;;;15.00;;
68921;SDS011;55959;51.244;5.724;2022-12-10T16:45:53;32.10;;;17.23;;
68921;SDS011;55959;51.244;5.724;2022-12-10T16:48:19;34.77;;;17.20;;
68921;SDS011;55959;51.244;5.724;2022-12-10T16:50:46;31.90;;;17.43;;
68921;SDS011;55959;51.244;5.724;2022-12-10T16:55:43;31.93;;;17.43;;
68921;SDS011;55959;51.244;5.724;2022-12-10T16:58:10;35.30;;;18.03;;
68921;SDS011;55959;51.244;5.724;2022-12-10T17:00:39;34.57;;;18.33;;
68921;SDS011;55959;51.244;5.724;2022-12-10T17:03:09;32.67;;;17.97;;
68921;SDS011;55959;51.244;5.724;2022-12-10T17:05:47;36.73;;;18.60;;
68921;SDS011;55959;51.244;5.724;2022-12-10T17:08:19;30.83;;;16.77;;
68921;SDS011;55959;51.244;5.724;2022-12-10T17:10:46;28.77;;;16.00;;
68921;SDS011;55959;51.244;5.724;2022-12-10T17:13:32;33.43;;;16.93;;